Time;durP1;ratioP1;P1;durP2;ratioP2;P2;SDS_P1;SDS_P2;PMS_P1;PMS_P2;Temp;Humidity;BMP_temperature;BMP_pressure;BME280_temperature;BME280_humidity;BME280_pressure;Samples;Min_cycle;Max_cycle;Signal;HPM_P1;HPM_P2
2021/09/11 00:02:12;;;;;;;;;;;16.60;58.40;;;;;;4358300;32;20037;-42
2021/09/11 00:04:44;;;;;;;;;;;16.50;58.40;;;;;;4358615;32;20457;-47
2021/09/11 00:07:10;;;;;;;;;;;16.50;58.60;;;;;;4358570;32;19962;-45
2021/09/11 00:09:36;;;;;;;;;;;16.40;58.50;;;;;;4358001;32;19973;-44
2021/09/11 00:12:02;;;;;;;;;;;16.40;58.70;;;;;;4357855;32;19970;-44
2021/09/11 00:14:29;;;;;;;;;;;16.30;58.90;;;;;;4357771;32;21058;-48
2021/09/11 00:16:55;;;;;;;;;;;16.20;59.10;;;;;;4357858;32;19977;-47
2021/09/11 00:19:21;;;;;;;;;;;16.20;59.20;;;;;;4358006;32;20331;-45
2021/09/11 00:21:47;;;;;;;;;;;16.10;59.30;;;;;;4357951;32;20038;-49
2021/09/11 00:24:13;;;;;;;;;;;16.10;59.30;;;;;;4358138;32;19971;-49
2021/09/11 00:26:39;;;;;;;;;;;16.10;59.40;;;;;;4358089;32;20034;-38
2021/09/11 00:29:06;;;;;;;;;;;16.10;59.40;;;;;;4358543;32;20040;-47
2021/09/11 00:31:32;;;;;;;;;;;16.10;59.40;;;;;;4358300;32;20043;-46
2021/09/11 00:33:58;;;;;;;;;;;16.00;59.40;;;;;;4357998;32;19971;-47
2021/09/11 00:36:24;;;;;;;;;;;16.00;59.30;;;;;;4359018;32;20033;-46
2021/09/11 00:38:50;;;;;;;;;;;16.00;59.30;;;;;;4361119;32;20028;-47
2021/09/11 00:41:17;;;;;;;;;;;16.00;59.30;;;;;;4360938;32;19978;-43
2021/09/11 00:43:47;;;;;;;;;;;16.00;59.30;;;;;;4346288;32;19967;-42
2021/09/11 00:46:13;;;;;;;;;;;16.00;59.30;;;;;;4346094;33;20083;-45
2021/09/11 00:48:40;;;;;;;;;;;16.00;59.20;;;;;;4346096;33;20018;-45
2021/09/11 00:51:06;;;;;;;;;;;16.00;59.30;;;;;;4313686;33;19975;-45
2021/09/11 00:53:33;;;;;;;;;;;16.00;59.20;;;;;;4301591;33;20005;-45
2021/09/11 00:55:59;;;;;;;;;;;16.00;59.20;;;;;;4313935;33;20077;-42
2021/09/11 00:58:25;;;;;;;;;;;16.00;59.10;;;;;;4302104;33;19986;-43
2021/09/11 01:00:51;;;;;;;;;;;16.00;59.00;;;;;;4302094;33;20504;-45
2021/09/11 01:03:17;;;;;;;;;;;16.00;58.90;;;;;;4313591;33;20075;-50
2021/09/11 01:05:44;;;;;;;;;;;16.00;58.80;;;;;;4313576;33;19978;-42
2021/09/11 01:08:10;;;;;;;;;;;16.00;58.70;;;;;;4301825;33;20022;-48
2021/09/11 01:10:38;;;;;;;;;;;16.00;58.70;;;;;;4313632;33;19982;-45
2021/09/11 01:13:04;;;;;;;;;;;16.00;58.70;;;;;;4313153;33;20459;-46
2021/09/11 01:15:40;;;;;;;;;;;16.00;58.80;;;;;;4328412;33;20033;-48
2021/09/11 01:18:07;;;;;;;;;;;16.00;58.80;;;;;;4328219;33;19995;-47
2021/09/11 01:20:34;;;;;;;;;;;15.90;58.80;;;;;;4328119;33;20459;-46
2021/09/11 01:23:00;;;;;;;;;;;16.00;59.00;;;;;;4328231;33;19975;-46
2021/09/11 01:25:27;;;;;;;;;;;15.90;59.00;;;;;;4328101;33;20448;-45
2021/09/11 01:27:53;;;;;;;;;;;15.90;58.90;;;;;;4328621;33;19963;-44
2021/09/11 01:30:20;;;;;;;;;;;15.90;58.90;;;;;;4330223;33;19967;-49
2021/09/11 01:32:47;;;;;;;;;;;16.00;58.80;;;;;;4330466;33;20059;-47
2021/09/11 01:35:13;;;;;;;;;;;16.00;58.70;;;;;;4330310;33;20401;-46
2021/09/11 01:37:40;;;;;;;;;;;16.00;58.60;;;;;;4330450;33;20408;-48
2021/09/11 01:40:07;;;;;;;;;;;16.00;58.50;;;;;;4330446;33;19971;-46
2021/09/11 01:42:33;;;;;;;;;;;16.00;58.40;;;;;;4337621;33;19967;-47
2021/09/11 01:45:20;;;;;;;;;;;16.00;58.30;;;;;;4344833;33;19966;-46
2021/09/11 01:47:48;;;;;;;;;;;16.10;59.00;;;;;;4343914;33;19994;-46
2021/09/11 01:50:16;;;;;;;;;;;16.10;59.00;;;;;;4345405;33;20431;-40
2021/09/11 01:52:42;;;;;;;;;;;16.10;58.10;;;;;;4345378;33;19990;-46
2021/09/11 01:55:10;;;;;;;;;;;16.10;58.00;;;;;;4344851;33;19967;-47
2021/09/11 01:57:37;;;;;;;;;;;16.10;57.80;;;;;;4344925;33;20042;-48
2021/09/11 02:00:06;;;;;;;;;;;16.10;57.80;;;;;;4345205;33;20001;-46
2021/09/11 02:02:32;;;;;;;;;;;16.10;57.70;;;;;;4344642;33;19974;-45
2021/09/11 02:04:58;;;;;;;;;;;16.10;57.60;;;;;;4344798;33;20023;-46
2021/09/11 02:07:24;;;;;;;;;;;16.10;57.60;;;;;;4344583;33;19963;-49
2021/09/11 02:09:50;;;;;;;;;;;16.10;57.60;;;;;;4344494;33;20038;-46
2021/09/11 02:12:16;;;;;;;;;;;16.10;57.60;;;;;;4344591;33;20430;-44
2021/09/11 02:14:43;;;;;;;;;;;16.20;57.60;;;;;;4345580;32;20069;-47
2021/09/11 02:17:09;;;;;;;;;;;16.10;57.40;;;;;;4359575;32;19966;-47
2021/09/11 02:19:35;;;;;;;;;;;16.20;57.40;;;;;;4359284;32;20027;-47
2021/09/11 02:22:03;;;;;;;;;;;16.20;57.20;;;;;;4358967;32;19982;-46
2021/09/11 02:24:31;;;;;;;;;;;16.20;57.10;;;;;;4359515;32;19986;-46
2021/09/11 02:26:58;;;;;;;;;;;16.20;56.90;;;;;;4345687;32;19982;-46
2021/09/11 02:29:24;;;;;;;;;;;16.20;56.50;;;;;;4358764;32;20050;-46
2021/09/11 02:31:50;;;;;;;;;;;16.20;56.40;;;;;;4359581;32;20456;-46
2021/09/11 02:34:17;;;;;;;;;;;16.20;56.40;;;;;;4345408;32;19981;-47
2021/09/11 02:36:43;;;;;;;;;;;16.20;56.50;;;;;;4359494;32;19959;-45
2021/09/11 02:39:09;;;;;;;;;;;16.20;56.40;;;;;;4359210;32;20054;-47
2021/09/11 02:41:35;;;;;;;;;;;16.30;56.30;;;;;;4357577;32;20038;-47
2021/09/11 02:44:02;;;;;;;;;;;16.20;56.00;;;;;;4330535;33;20028;-45
2021/09/11 02:46:32;;;;;;;;;;;16.20;56.00;;;;;;4344435;33;19970;-45
2021/09/11 02:49:02;;;;;;;;;;;16.20;56.00;;;;;;4343905;32;19975;-46
2021/09/11 02:51:28;;;;;;;;;;;16.20;56.00;;;;;;4344273;32;19982;-47
2021/09/11 02:53:54;;;;;;;;;;;16.20;56.10;;;;;;4344090;33;20412;-43
2021/09/11 02:56:20;;;;;;;;;;;16.30;56.40;;;;;;4343909;33;20379;-49
2021/09/11 02:58:47;;;;;;;;;;;16.40;56.70;;;;;;4330607;33;20435;-45
2021/09/11 03:01:13;;;;;;;;;;;16.50;56.70;;;;;;4330114;33;19982;-45
2021/09/11 03:03:39;;;;;;;;;;;16.70;56.70;;;;;;4311628;33;20078;-46
2021/09/11 03:06:05;;;;;;;;;;;16.90;56.70;;;;;;4312424;33;20062;-47
2021/09/11 03:08:31;;;;;;;;;;;17.10;56.70;;;;;;4311957;33;20084;-47
2021/09/11 03:10:57;;;;;;;;;;;17.30;56.70;;;;;;4299807;33;20450;-48
2021/09/11 03:13:24;;;;;;;;;;;17.50;56.60;;;;;;4311929;33;20050;-46
2021/09/11 03:15:50;;;;;;;;;;;17.70;56.30;;;;;;4312278;33;19971;-46
2021/09/11 03:18:16;;;;;;;;;;;17.90;56.00;;;;;;4312386;33;20052;-45
2021/09/11 03:20:47;;;;;;;;;;;18.10;55.30;;;;;;4311605;33;19976;-45
2021/09/11 03:23:14;;;;;;;;;;;18.30;54.80;;;;;;4311910;33;19968;-45
2021/09/11 03:25:40;;;;;;;;;;;18.40;54.00;;;;;;4312147;33;20003;-45
2021/09/11 03:28:07;;;;;;;;;;;18.50;54.00;;;;;;4312099;33;19998;-46
2021/09/11 03:30:33;;;;;;;;;;;18.70;54.40;;;;;;4311642;33;20106;-44
2021/09/11 03:32:59;;;;;;;;;;;18.90;54.50;;;;;;4312054;33;20413;-46
2021/09/11 03:35:26;;;;;;;;;;;19.20;54.10;;;;;;4315111;33;19967;-44
2021/09/11 03:37:52;;;;;;;;;;;19.50;53.70;;;;;;4343548;33;19970;-41
2021/09/11 03:40:18;;;;;;;;;;;19.80;53.40;;;;;;4343663;33;19993;-42
2021/09/11 03:42:45;;;;;;;;;;;20.10;53.20;;;;;;4343642;33;19970;-42
2021/09/11 03:45:11;;;;;;;;;;;20.40;53.10;;;;;;4343047;33;20427;-43
2021/09/11 03:47:37;;;;;;;;;;;20.70;51.90;;;;;;4317874;33;19958;-42
2021/09/11 03:50:04;;;;;;;;;;;21.00;51.50;;;;;;4343619;33;20056;-42
2021/09/11 03:52:31;;;;;;;;;;;21.30;51.10;;;;;;4343404;33;19990;-41
2021/09/11 03:54:57;;;;;;;;;;;21.50;50.60;;;;;;4343420;33;19990;-41
2021/09/11 03:57:23;;;;;;;;;;;21.80;49.90;;;;;;4343271;33;20522;-40
2021/09/11 03:59:49;;;;;;;;;;;22.10;49.30;;;;;;4330085;33;19993;-42
2021/09/11 04:02:16;;;;;;;;;;;22.40;48.50;;;;;;4343341;33;20042;-41
2021/09/11 04:04:42;;;;;;;;;;;22.70;48.20;;;;;;4343402;33;20871;-40
2021/09/11 04:07:08;;;;;;;;;;;23.00;48.00;;;;;;4343276;33;19973;-41
2021/09/11 04:09:34;;;;;;;;;;;23.20;46.70;;;;;;4343377;33;20502;-41
2021/09/11 04:12:00;;;;;;;;;;;23.50;46.60;;;;;;4344906;32;20048;-39
2021/09/11 04:14:26;;;;;;;;;;;23.80;45.60;;;;;;4354671;32;19967;-42
2021/09/11 04:16:53;;;;;;;;;;;24.00;44.50;;;;;;4361146;32;20378;-40
2021/09/11 04:19:19;;;;;;;;;;;24.20;42.20;;;;;;4361152;32;20049;-41
2021/09/11 04:21:45;;;;;;;;;;;24.20;42.40;;;;;;4361057;32;20490;-41
2021/09/11 04:24:11;;;;;;;;;;;24.30;41.60;;;;;;4360918;32;19967;-41
2021/09/11 04:26:37;;;;;;;;;;;24.30;41.60;;;;;;4361021;32;19982;-41
2021/09/11 04:29:04;;;;;;;;;;;24.40;41.50;;;;;;4360856;32;20064;-41
2021/09/11 04:31:30;;;;;;;;;;;24.40;41.20;;;;;;4346910;32;20393;-41
2021/09/11 04:33:56;;;;;;;;;;;24.40;41.10;;;;;;4361011;32;19979;-41
2021/09/11 04:36:23;;;;;;;;;;;24.40;40.40;;;;;;4360476;32;19982;-41
2021/09/11 04:38:49;;;;;;;;;;;24.30;40.40;;;;;;4360771;32;19970;-40
2021/09/11 04:41:15;;;;;;;;;;;24.20;40.70;;;;;;4360767;32;20002;-40
2021/09/11 04:43:41;;;;;;;;;;;24.20;40.90;;;;;;4346586;32;19966;-40
2021/09/11 04:46:07;;;;;;;;;;;24.10;41.00;;;;;;4346098;33;20071;-41
2021/09/11 04:48:34;;;;;;;;;;;24.20;41.30;;;;;;4345946;33;19977;-40
2021/09/11 04:51:00;;;;;;;;;;;24.20;41.10;;;;;;4345668;33;20060;-41
2021/09/11 04:53:26;;;;;;;;;;;24.30;40.90;;;;;;4345896;33;19966;-39
2021/09/11 04:55:52;;;;;;;;;;;24.30;40.80;;;;;;4345990;33;19962;-40
2021/09/11 04:58:18;;;;;;;;;;;24.40;40.20;;;;;;4319806;33;20046;-41
2021/09/11 05:00:45;;;;;;;;;;;24.40;39.90;;;;;;4331839;33;19971;-40
2021/09/11 05:03:11;;;;;;;;;;;24.40;39.90;;;;;;4345026;33;19974;-40
2021/09/11 05:05:37;;;;;;;;;;;24.40;40.30;;;;;;4330334;33;20047;-41
2021/09/11 05:08:04;;;;;;;;;;;24.50;39.90;;;;;;4344348;33;20433;-40
2021/09/11 05:10:30;;;;;;;;;;;24.60;39.40;;;;;;4344171;33;20030;-40
2021/09/11 05:12:56;;;;;;;;;;;24.70;40.20;;;;;;4330454;33;20509;-40
2021/09/11 05:15:22;;;;;;;;;;;24.90;40.40;;;;;;4344722;33;20014;-40
2021/09/11 05:17:49;;;;;;;;;;;25.30;40.80;;;;;;4331339;33;19986;-41
2021/09/11 05:20:16;;;;;;;;;;;25.60;40.10;;;;;;4345257;33;20415;-41
2021/09/11 05:22:42;;;;;;;;;;;25.70;39.20;;;;;;4344536;32;19986;-41
2021/09/11 05:25:13;;;;;;;;;;;25.70;38.90;;;;;;4345438;33;19972;-41
2021/09/11 05:27:40;;;;;;;;;;;25.60;39.20;;;;;;4345346;33;20054;-42
2021/09/11 05:30:08;;;;;;;;;;;25.60;39.80;;;;;;4344917;33;20370;-40
2021/09/11 05:32:34;;;;;;;;;;;25.70;39.70;;;;;;4344991;33;19963;-40
2021/09/11 05:35:00;;;;;;;;;;;25.80;38.10;;;;;;4331603;33;19983;-41
2021/09/11 05:37:26;;;;;;;;;;;25.80;36.30;;;;;;4345613;33;20051;-40
2021/09/11 05:39:52;;;;;;;;;;;25.90;36.50;;;;;;4344906;33;19970;-41
2021/09/11 05:42:19;;;;;;;;;;;25.90;36.70;;;;;;4350909;32;19967;-40
2021/09/11 05:44:46;;;;;;;;;;;26.10;37.40;;;;;;4346070;32;20421;-41
2021/09/11 05:47:12;;;;;;;;;;;26.20;37.40;;;;;;4346089;32;19970;-40
2021/09/11 05:49:38;;;;;;;;;;;26.30;36.50;;;;;;4359992;32;19959;-42
2021/09/11 05:52:05;;;;;;;;;;;26.30;35.50;;;;;;4359965;32;19962;-39
2021/09/11 05:54:31;;;;;;;;;;;26.30;35.70;;;;;;4359901;32;20034;-41
2021/09/11 05:56:57;;;;;;;;;;;26.30;35.50;;;;;;4360073;32;19996;-41
2021/09/11 05:59:25;;;;;;;;;;;26.30;34.70;;;;;;4359686;32;20070;-41
2021/09/11 06:01:52;;;;;;;;;;;26.40;34.20;;;;;;4359590;32;20443;-41
2021/09/11 06:04:18;;;;;;;;;;;26.50;34.60;;;;;;4359373;32;20017;-40
2021/09/11 06:06:44;;;;;;;;;;;26.60;35.00;;;;;;4359814;32;19970;-42
2021/09/11 06:09:10;;;;;;;;;;;26.70;35.00;;;;;;4359481;32;20454;-40
2021/09/11 06:11:36;;;;;;;;;;;26.70;34.20;;;;;;4359447;32;19958;-40
2021/09/11 06:14:03;;;;;;;;;;;26.70;34.20;;;;;;4359321;32;19981;-40
2021/09/11 06:16:29;;;;;;;;;;;26.60;34.20;;;;;;4359836;32;19958;-40
2021/09/11 06:18:55;;;;;;;;;;;26.60;34.40;;;;;;4360059;32;20041;-40
2021/09/11 06:21:21;;;;;;;;;;;26.50;34.50;;;;;;4359258;32;19973;-41
2021/09/11 06:23:48;;;;;;;;;;;26.50;35.00;;;;;;4359196;32;20010;-41
2021/09/11 06:26:14;;;;;;;;;;;26.40;34.20;;;;;;4358903;32;20074;-41
2021/09/11 06:28:40;;;;;;;;;;;26.40;33.70;;;;;;4359156;32;20056;-41
2021/09/11 06:31:06;;;;;;;;;;;26.30;33.50;;;;;;4359053;32;19958;-40
2021/09/11 06:33:32;;;;;;;;;;;26.30;33.70;;;;;;4358983;32;19981;-41
2021/09/11 06:35:59;;;;;;;;;;;26.40;34.20;;;;;;4359416;32;19989;-40
2021/09/11 06:38:25;;;;;;;;;;;26.50;34.50;;;;;;4359173;32;19985;-40
2021/09/11 06:40:51;;;;;;;;;;;26.50;34.20;;;;;;4359050;32;19993;-41
2021/09/11 06:43:18;;;;;;;;;;;26.50;33.00;;;;;;4346996;32;19980;-41
2021/09/11 06:45:44;;;;;;;;;;;26.50;33.50;;;;;;4344295;33;19982;-42
2021/09/11 06:48:10;;;;;;;;;;;26.70;33.90;;;;;;4343828;33;19970;-41
2021/09/11 06:50:37;;;;;;;;;;;26.90;33.20;;;;;;4343748;33;20425;-42
2021/09/11 06:53:05;;;;;;;;;;;27.10;33.40;;;;;;4343894;33;20013;-40
2021/09/11 06:55:31;;;;;;;;;;;27.30;33.20;;;;;;4343926;33;20001;-41
2021/09/11 06:57:57;;;;;;;;;;;27.50;31.20;;;;;;4326528;33;19962;-41
2021/09/11 07:00:23;;;;;;;;;;;27.50;30.10;;;;;;4314050;33;20369;-41
2021/09/11 07:02:49;;;;;;;;;;;27.60;30.00;;;;;;4326622;33;19974;-40
2021/09/11 07:05:15;;;;;;;;;;;27.60;30.00;;;;;;4326714;33;19968;-42
2021/09/11 07:07:42;;;;;;;;;;;27.60;29.70;;;;;;4326738;33;20121;-42
2021/09/11 07:10:08;;;;;;;;;;;27.60;29.70;;;;;;4326652;33;20095;-41
2021/09/11 07:12:35;;;;;;;;;;;27.70;29.60;;;;;;4314333;33;20007;-41
2021/09/11 07:15:02;;;;;;;;;;;27.70;28.60;;;;;;4326524;33;19978;-42
2021/09/11 07:17:28;;;;;;;;;;;27.90;29.20;;;;;;4326937;33;19974;-43
2021/09/11 07:19:54;;;;;;;;;;;27.90;28.80;;;;;;4326078;33;19969;-42
2021/09/11 07:22:21;;;;;;;;;;;28.00;28.90;;;;;;4326468;33;19971;-41
2021/09/11 07:24:47;;;;;;;;;;;28.10;28.80;;;;;;4326339;33;19991;-42
2021/09/11 07:27:13;;;;;;;;;;;28.20;29.30;;;;;;4326408;33;20493;-42
2021/09/11 07:29:39;;;;;;;;;;;28.20;28.10;;;;;;4339906;33;19959;-41
2021/09/11 07:32:06;;;;;;;;;;;28.20;28.10;;;;;;4343612;33;19970;-42
2021/09/11 07:34:33;;;;;;;;;;;28.30;27.70;;;;;;4343349;33;20455;-42
2021/09/11 07:36:59;;;;;;;;;;;28.30;28.00;;;;;;4317326;33;20002;-43
2021/09/11 07:39:25;;;;;;;;;;;28.30;28.20;;;;;;4310762;33;20070;-43
2021/09/11 07:41:51;;;;;;;;;;;28.40;28.40;;;;;;4313933;33;19963;-41
2021/09/11 07:44:17;;;;;;;;;;;28.20;27.50;;;;;;4326102;33;19978;-40
2021/09/11 07:46:44;;;;;;;;;;;28.20;27.50;;;;;;4325612;33;20046;-42
2021/09/11 07:49:10;;;;;;;;;;;28.20;27.70;;;;;;4326041;33;19966;-42
2021/09/11 07:51:36;;;;;;;;;;;28.10;27.10;;;;;;4325807;33;20055;-43
2021/09/11 07:54:02;;;;;;;;;;;28.10;27.60;;;;;;4325997;33;19967;-43
2021/09/11 07:56:28;;;;;;;;;;;28.20;27.60;;;;;;4325878;33;20007;-43
2021/09/11 07:58:54;;;;;;;;;;;28.20;27.10;;;;;;4326083;33;19975;-42
2021/09/11 08:01:21;;;;;;;;;;;28.30;25.90;;;;;;4325928;33;19973;-42
2021/09/11 08:03:47;;;;;;;;;;;28.30;25.90;;;;;;4326225;33;20001;-41
2021/09/11 08:06:13;;;;;;;;;;;28.40;25.60;;;;;;4296113;33;19976;-43
2021/09/11 08:08:39;;;;;;;;;;;28.40;25.00;;;;;;4296954;33;19968;-45
2021/09/11 08:11:08;;;;;;;;;;;28.50;24.60;;;;;;4308210;33;20487;-45
2021/09/11 08:13:35;;;;;;;;;;;28.60;25.00;;;;;;4314608;33;19971;-46
2021/09/11 08:16:01;;;;;;;;;;;28.70;25.40;;;;;;4325739;33;19983;-45
2021/09/11 08:18:28;;;;;;;;;;;28.80;25.40;;;;;;4326067;33;20014;-43
2021/09/11 08:20:54;;;;;;;;;;;28.90;25.30;;;;;;4313907;33;19966;-40
2021/09/11 08:23:20;;;;;;;;;;;28.90;25.20;;;;;;4326172;33;19971;-41
2021/09/11 08:25:46;;;;;;;;;;;29.00;25.20;;;;;;4325904;33;19963;-41
2021/09/11 08:28:14;;;;;;;;;;;29.00;25.00;;;;;;4325975;33;20515;-42
2021/09/11 08:30:40;;;;;;;;;;;29.00;24.70;;;;;;4325821;33;19975;-41
2021/09/11 08:33:07;;;;;;;;;;;29.10;24.60;;;;;;4326028;33;19979;-41
2021/09/11 08:35:33;;;;;;;;;;;29.10;23.70;;;;;;4313985;33;19983;-42
2021/09/11 08:37:59;;;;;;;;;;;29.00;23.80;;;;;;4340003;33;19974;-44
2021/09/11 08:40:25;;;;;;;;;;;29.00;24.00;;;;;;4342994;33;20068;-42
2021/09/11 08:42:51;;;;;;;;;;;29.00;23.80;;;;;;4342901;33;19971;-46
2021/09/11 08:45:17;;;;;;;;;;;29.00;24.00;;;;;;4343066;33;19978;-44
2021/09/11 08:47:47;;;;;;;;;;;29.00;24.00;;;;;;4342901;33;19962;-45
2021/09/11 08:50:14;;;;;;;;;;;29.10;24.20;;;;;;4342968;33;19955;-46
2021/09/11 08:52:42;;;;;;;;;;;29.10;24.10;;;;;;4329174;33;20450;-47
2021/09/11 08:55:09;;;;;;;;;;;29.00;23.80;;;;;;4342891;33;19970;-45
2021/09/11 08:57:36;;;;;;;;;;;28.90;24.20;;;;;;4344317;33;20014;-44
2021/09/11 09:00:03;;;;;;;;;;;28.90;24.30;;;;;;4345634;33;19970;-46
2021/09/11 09:02:30;;;;;;;;;;;28.80;24.20;;;;;;4331414;33;20512;-44
2021/09/11 09:04:58;;;;;;;;;;;29.00;24.50;;;;;;4345658;33;19971;-47
2021/09/11 09:07:45;;;;;;;;;;;28.90;24.30;;;;;;4331925;33;19990;-47
2021/09/11 09:10:13;;;;;;;;;;;28.90;24.10;;;;;;4345337;33;20488;-47
2021/09/11 09:12:41;;;;;;;;;;;28.90;24.10;;;;;;4345349;33;20156;-47
2021/09/11 09:15:12;;;;;;;;;;;28.90;24.20;;;;;;4357778;32;20459;-47
2021/09/11 09:17:51;;;;;;;;;;;28.90;24.00;;;;;;4360114;32;20002;-45
2021/09/11 09:20:24;;;;;;;;;;;29.00;24.20;;;;;;4360117;32;19959;-44
2021/09/11 09:23:19;;;;;;;;;;;29.00;24.20;;;;;;4359781;32;20033;-48
2021/09/11 09:25:45;;;;;;;;;;;29.00;24.20;;;;;;4359814;32;19970;-49
2021/09/11 09:28:13;;;;;;;;;;;29.00;24.30;;;;;;4360373;32;20032;-48
2021/09/11 09:30:41;;;;;;;;;;;29.10;24.60;;;;;;4359717;32;20057;-47
2021/09/11 09:33:17;;;;;;;;;;;29.00;24.50;;;;;;4359925;32;20053;-48
2021/09/11 09:35:43;;;;;;;;;;;29.00;24.50;;;;;;4360077;32;19972;-51
2021/09/11 09:38:09;;;;;;;;;;;29.00;24.40;;;;;;4360097;32;19962;-48
2021/09/11 09:40:44;;;;;;;;;;;29.10;24.80;;;;;;4360140;32;19970;-47
2021/09/11 09:43:11;;;;;;;;;;;29.00;24.50;;;;;;4349222;32;19956;-48
2021/09/11 09:45:37;;;;;;;;;;;29.10;24.70;;;;;;4345279;33;19970;-46
2021/09/11 09:48:10;;;;;;;;;;;29.10;24.50;;;;;;4344885;33;19959;-46
2021/09/11 09:50:41;;;;;;;;;;;29.00;24.60;;;;;;4345538;33;20062;-45
2021/09/11 09:53:08;;;;;;;;;;;29.00;24.80;;;;;;4345321;33;19955;-46
2021/09/11 09:55:35;;;;;;;;;;;29.00;24.80;;;;;;4344743;33;20045;-46
2021/09/11 09:58:01;;;;;;;;;;;28.90;25.00;;;;;;4345257;33;19967;-45
2021/09/11 10:00:28;;;;;;;;;;;28.80;24.90;;;;;;4344610;33;19970;-46
2021/09/11 10:02:54;;;;;;;;;;;28.80;25.20;;;;;;4331237;33;19979;-48
2021/09/11 10:05:23;;;;;;;;;;;28.70;25.40;;;;;;4344655;33;20418;-48
2021/09/11 10:08:16;;;;;;;;;;;28.70;25.40;;;;;;4330907;33;19994;-50
2021/09/11 10:10:44;;;;;;;;;;;28.70;25.50;;;;;;4328242;33;19959;-51
2021/09/11 10:13:17;;;;;;;;;;;28.70;25.50;;;;;;4344441;33;20048;-49
2021/09/11 10:16:19;;;;;;;;;;;28.70;25.40;;;;;;4344684;33;19993;-41
2021/09/11 10:18:46;;;;;;;;;;;28.80;25.50;;;;;;4268838;33;20461;-50
2021/09/11 10:21:35;;;;;;;;;;;28.90;25.80;;;;;;4269088;33;20003;-49
2021/09/11 10:24:01;;;;;;;;;;;29.00;25.80;;;;;;4269009;33;20454;-48
2021/09/11 10:26:47;;;;;;;;;;;29.00;25.30;;;;;;4269077;33;19991;-48
2021/09/11 10:29:31;;;;;;;;;;;29.10;25.50;;;;;;4269113;33;19980;-49
2021/09/11 10:32:15;;;;;;;;;;;29.20;24.80;;;;;;4268777;33;20507;-48
2021/09/11 10:34:53;;;;;;;;;;;29.30;24.20;;;;;;4269197;33;19988;-47
2021/09/11 10:37:25;;;;;;;;;;;29.50;23.80;;;;;;4268664;33;20043;-52
2021/09/11 10:40:44;;;;;;;;;;;29.70;24.20;;;;;;4268959;33;20545;-46
2021/09/11 10:43:20;;;;;;;;;;;29.70;24.20;;;;;;4208662;34;20104;-47
2021/09/11 10:45:46;;;;;;;;;;;29.70;24.00;;;;;;4211933;34;20070;-46
2021/09/11 10:48:42;;;;;;;;;;;29.90;24.30;;;;;;4212259;34;20450;-45
2021/09/11 10:51:13;;;;;;;;;;;29.90;24.00;;;;;;4212484;34;19980;-46
2021/09/11 10:53:40;;;;;;;;;;;29.90;24.40;;;;;;4212286;34;20421;-46
2021/09/11 10:56:25;;;;;;;;;;;29.90;24.70;;;;;;4238862;33;19991;-49
2021/09/11 10:59:15;;;;;;;;;;;29.90;24.90;;;;;;4254468;33;19972;-47
2021/09/11 11:02:01;;;;;;;;;;;29.80;24.70;;;;;;4254532;33;20418;-51
2021/09/11 11:04:38;;;;;;;;;;;29.60;24.80;;;;;;4254471;33;19976;-48
2021/09/11 11:07:07;;;;;;;;;;;29.40;24.80;;;;;;4254121;33;20000;-43
2021/09/11 11:09:37;;;;;;;;;;;29.40;25.30;;;;;;4253826;33;19973;-46
2021/09/11 11:12:04;;;;;;;;;;;29.30;25.40;;;;;;4254254;33;20445;-46
2021/09/11 11:14:31;;;;;;;;;;;29.10;24.70;;;;;;4253615;33;19972;-45
2021/09/11 11:16:58;;;;;;;;;;;29.00;24.70;;;;;;4254004;33;19980;-51
2021/09/11 11:19:26;;;;;;;;;;;28.90;24.40;;;;;;4323238;33;19967;-49
2021/09/11 11:22:06;;;;;;;;;;;28.80;24.60;;;;;;4329062;33;19975;-50
2021/09/11 11:24:37;;;;;;;;;;;28.70;24.70;;;;;;4343188;33;19986;-46
2021/09/11 11:27:05;;;;;;;;;;;28.70;24.90;;;;;;4343005;33;20368;-50
2021/09/11 11:29:32;;;;;;;;;;;28.70;25.00;;;;;;4343356;33;19959;-47
2021/09/11 11:31:59;;;;;;;;;;;28.70;24.80;;;;;;4343602;33;19994;-48
2021/09/11 11:34:26;;;;;;;;;;;28.70;24.90;;;;;;4343607;33;19969;-50
2021/09/11 11:36:54;;;;;;;;;;;28.70;25.10;;;;;;4343287;33;20395;-47
2021/09/11 11:39:24;;;;;;;;;;;28.70;24.30;;;;;;4329839;33;20065;-48
2021/09/11 11:42:07;;;;;;;;;;;28.70;24.10;;;;;;4343262;33;19959;-48
2021/09/11 11:44:40;;;;;;;;;;;28.80;24.50;;;;;;4343167;32;19971;-48
2021/09/11 11:47:15;;;;;;;;;;;28.80;24.70;;;;;;4343863;32;19970;-47
2021/09/11 11:49:41;;;;;;;;;;;28.80;24.40;;;;;;4341697;33;19977;-46
2021/09/11 11:52:08;;;;;;;;;;;28.70;24.40;;;;;;4343526;32;19970;-45
2021/09/11 11:54:37;;;;;;;;;;;28.60;23.60;;;;;;4343489;32;20055;-47
2021/09/11 11:57:23;;;;;;;;;;;28.70;23.70;;;;;;4341777;33;20057;-46
2021/09/11 11:59:59;;;;;;;;;;;28.70;23.80;;;;;;4343107;32;19990;-41
2021/09/11 12:02:34;;;;;;;;;;;28.70;24.30;;;;;;4343192;32;19965;-47
2021/09/11 12:05:21;;;;;;;;;;;28.80;24.70;;;;;;4341674;33;20460;-48
2021/09/11 12:08:05;;;;;;;;;;;28.80;25.40;;;;;;4343629;32;19970;-49
2021/09/11 12:10:33;;;;;;;;;;;28.80;24.80;;;;;;4343054;32;19973;-48
2021/09/11 12:13:09;;;;;;;;;;;28.80;25.10;;;;;;4343055;32;20469;-46
2021/09/11 12:15:37;;;;;;;;;;;28.90;25.20;;;;;;4341686;33;19986;-50
2021/09/11 12:18:11;;;;;;;;;;;28.80;24.70;;;;;;4341779;33;19970;-49
2021/09/11 12:20:49;;;;;;;;;;;28.90;24.30;;;;;;4343075;32;19998;-45
2021/09/11 12:23:20;;;;;;;;;;;28.90;24.70;;;;;;4343067;32;19975;-48
2021/09/11 12:25:47;;;;;;;;;;;28.80;24.90;;;;;;4343255;32;20051;-49
2021/09/11 12:28:38;;;;;;;;;;;28.80;25.00;;;;;;4343245;32;19959;-47
2021/09/11 12:31:16;;;;;;;;;;;28.80;24.90;;;;;;4342999;32;20468;-47
2021/09/11 12:33:48;;;;;;;;;;;28.70;24.70;;;;;;4344175;33;19986;-47
2021/09/11 12:36:33;;;;;;;;;;;28.70;24.70;;;;;;4346227;32;20025;-47
2021/09/11 12:39:02;;;;;;;;;;;28.70;24.80;;;;;;4345945;32;19974;-47
2021/09/11 12:41:29;;;;;;;;;;;28.60;24.80;;;;;;4345840;32;19970;-51
2021/09/11 12:43:55;;;;;;;;;;;28.60;24.80;;;;;;4345709;33;20484;-50
2021/09/11 12:46:34;;;;;;;;;;;28.60;24.80;;;;;;4345749;33;20436;-48
2021/09/11 12:49:01;;;;;;;;;;;28.60;24.90;;;;;;4346067;33;19971;-49
2021/09/11 12:51:27;;;;;;;;;;;28.50;24.90;;;;;;4345404;33;20441;-47
2021/09/11 12:53:53;;;;;;;;;;;28.50;24.70;;;;;;4345884;33;20046;-49
2021/09/11 12:56:22;;;;;;;;;;;28.50;24.80;;;;;;4345622;33;19998;-48
2021/09/11 12:58:55;;;;;;;;;;;28.40;24.80;;;;;;4345702;33;19990;-48
2021/09/11 13:01:22;;;;;;;;;;;28.40;24.70;;;;;;4345342;33;20385;-49
2021/09/11 13:03:48;;;;;;;;;;;28.40;24.70;;;;;;4331875;33;20075;-48
2021/09/11 13:06:15;;;;;;;;;;;28.40;24.60;;;;;;4345209;33;19986;-49
2021/09/11 13:08:44;;;;;;;;;;;28.40;24.60;;;;;;4331907;33;20387;-47
2021/09/11 13:11:11;;;;;;;;;;;28.40;24.80;;;;;;4331482;33;19970;-51
2021/09/11 13:13:38;;;;;;;;;;;28.40;24.80;;;;;;4327371;33;20060;-49
2021/09/11 13:16:05;;;;;;;;;;;28.30;24.90;;;;;;4328540;33;19959;-49
2021/09/11 13:18:31;;;;;;;;;;;28.30;25.00;;;;;;4327836;33;20018;-50
2021/09/11 13:21:02;;;;;;;;;;;28.20;25.20;;;;;;4327875;33;19997;-47
2021/09/11 13:23:28;;;;;;;;;;;28.20;25.20;;;;;;4327514;33;19979;-49
2021/09/11 13:25:54;;;;;;;;;;;28.10;25.10;;;;;;4316005;33;19982;-44
2021/09/11 13:28:21;;;;;;;;;;;28.00;25.10;;;;;;4328162;33;20408;-48
2021/09/11 13:30:47;;;;;;;;;;;28.00;25.30;;;;;;4327786;33;19983;-48
2021/09/11 13:33:13;;;;;;;;;;;28.00;25.40;;;;;;4312480;33;19987;-48
2021/09/11 13:35:39;;;;;;;;;;;27.90;25.40;;;;;;4312974;33;20063;-49
2021/09/11 13:38:05;;;;;;;;;;;27.90;25.30;;;;;;4300850;33;19976;-49
2021/09/11 13:40:31;;;;;;;;;;;27.80;25.30;;;;;;4313245;33;20055;-48
2021/09/11 13:42:58;;;;;;;;;;;27.70;25.30;;;;;;4312688;33;19986;-48
2021/09/11 13:45:24;;;;;;;;;;;27.70;25.50;;;;;;4324401;33;19977;-50
2021/09/11 13:47:50;;;;;;;;;;;27.60;25.50;;;;;;4327861;33;19983;-47
2021/09/11 13:50:17;;;;;;;;;;;27.50;25.50;;;;;;4327665;33;20379;-43
2021/09/11 13:52:43;;;;;;;;;;;27.40;25.60;;;;;;4327107;33;19997;-49
2021/09/11 13:55:09;;;;;;;;;;;27.30;25.60;;;;;;4327522;33;19973;-45
2021/09/11 13:57:35;;;;;;;;;;;27.30;25.60;;;;;;4327608;33;19970;-48
2021/09/11 14:00:03;;;;;;;;;;;27.20;25.70;;;;;;4327278;33;19967;-48
2021/09/11 14:02:29;;;;;;;;;;;27.20;25.80;;;;;;4327274;33;19994;-47
2021/09/11 14:04:55;;;;;;;;;;;27.00;25.80;;;;;;4327466;33;20367;-46
2021/09/11 14:07:21;;;;;;;;;;;26.90;25.80;;;;;;4344849;33;20003;-51
2021/09/11 14:09:48;;;;;;;;;;;26.80;25.80;;;;;;4344219;33;20097;-45
2021/09/11 14:12:14;;;;;;;;;;;26.70;25.90;;;;;;4330484;33;19966;-46
2021/09/11 14:14:40;;;;;;;;;;;26.70;26.00;;;;;;4339912;32;19967;-46
2021/09/11 14:17:06;;;;;;;;;;;26.60;26.20;;;;;;4359096;32;19967;-43
2021/09/11 14:19:33;;;;;;;;;;;26.50;26.30;;;;;;4359258;32;20427;-45
2021/09/11 14:21:59;;;;;;;;;;;26.40;26.40;;;;;;4359112;32;20320;-44
2021/09/11 14:24:25;;;;;;;;;;;26.40;26.50;;;;;;4359207;32;20083;-44